createdAt,value
2018-08-09T00:01:03.847Z,19.50
2018-08-09T00:03:31.527Z,19.60
2018-08-09T00:05:59.214Z,19.60
2018-08-09T00:08:26.759Z,19.70
2018-08-09T00:10:54.326Z,19.70
2018-08-09T00:13:21.804Z,19.70
2018-08-09T00:15:49.320Z,19.70
2018-08-09T00:18:16.775Z,19.60
2018-08-09T00:20:44.845Z,19.60
2018-08-09T00:23:12.250Z,19.50
2018-08-09T00:25:39.650Z,19.40
2018-08-09T00:28:08.288Z,19.30
2018-08-09T00:30:35.835Z,19.20
2018-08-09T00:33:03.422Z,19.10
2018-08-09T00:35:31.040Z,19.10
2018-08-09T00:37:58.453Z,19.10
2018-08-09T00:40:26.003Z,19.10
2018-08-09T00:42:53.564Z,19.10
2018-08-09T00:45:21.019Z,19.20
2018-08-09T00:47:49.578Z,19.10
2018-08-09T00:50:17.419Z,19.10
2018-08-09T00:52:44.826Z,19.00
2018-08-09T00:55:12.194Z,19.00
2018-08-09T00:57:39.618Z,18.90
2018-08-09T01:00:07.076Z,18.90
2018-08-09T01:02:34.564Z,18.80
2018-08-09T01:05:02.044Z,18.80
2018-08-09T01:07:29.571Z,18.80
2018-08-09T01:09:57.054Z,18.80
2018-08-09T01:12:24.650Z,18.70
2018-08-09T01:14:53.071Z,18.70
2018-08-09T01:17:20.590Z,18.60
2018-08-09T01:19:48.253Z,18.50
2018-08-09T01:22:15.702Z,18.50
2018-08-09T01:24:43.147Z,18.30
2018-08-09T01:27:10.564Z,18.20
2018-08-09T01:29:39.280Z,18.10
2018-08-09T01:32:06.735Z,18.10
2018-08-09T01:34:34.511Z,18.10
2018-08-09T01:37:02.012Z,18.10
2018-08-09T01:39:29.619Z,18.10
2018-08-09T01:42:08.587Z,18.00
2018-08-09T01:44:36.239Z,17.90
2018-08-09T01:47:03.881Z,17.80
2018-08-09T01:49:31.324Z,17.80
2018-08-09T01:51:58.757Z,17.80
2018-08-09T01:54:26.373Z,17.70
2018-08-09T01:56:53.878Z,17.60
2018-08-09T01:59:21.593Z,17.60
2018-08-09T02:01:49.082Z,17.60
2018-08-09T02:04:17.893Z,17.50
2018-08-09T02:06:45.442Z,17.50
2018-08-09T02:09:20.206Z,17.50
2018-08-09T02:11:47.568Z,17.50
2018-08-09T02:14:15.025Z,17.40
2018-08-09T02:16:42.525Z,17.40
2018-08-09T02:19:10.122Z,17.20
2018-08-09T02:21:37.691Z,17.00
2018-08-09T02:24:05.172Z,16.90
2018-08-09T02:26:32.769Z,16.80
2018-08-09T02:29:00.346Z,16.70
2018-08-09T02:31:27.867Z,16.70
2018-08-09T02:33:55.383Z,16.80
2018-08-09T02:36:22.807Z,16.70
2018-08-09T02:38:50.349Z,16.60
2018-08-09T02:41:18.503Z,16.50
2018-08-09T02:43:46.010Z,16.50
2018-08-09T02:46:14.040Z,16.70
2018-08-09T02:48:45.040Z,16.70
2018-08-09T02:51:12.752Z,16.80
2018-08-09T02:53:40.275Z,16.80
2018-08-09T02:56:07.730Z,16.80
2018-08-09T02:58:35.324Z,16.70
2018-08-09T03:01:03.494Z,16.70
2018-08-09T03:03:31.556Z,16.70
2018-08-09T03:05:59.089Z,16.70
2018-08-09T03:08:26.576Z,16.80
2018-08-09T03:10:54.012Z,16.90
2018-08-09T03:13:21.525Z,16.90
2018-08-09T03:15:49.043Z,16.90
2018-08-09T03:18:16.580Z,17.00
2018-08-09T03:20:44.549Z,17.00
2018-08-09T03:23:12.099Z,16.90
2018-08-09T03:25:39.986Z,17.00
2018-08-09T03:28:07.529Z,17.00
2018-08-09T03:30:34.969Z,17.00
2018-08-09T03:33:02.633Z,17.00
2018-08-09T03:35:31.217Z,16.90
2018-08-09T03:37:58.760Z,16.80
2018-08-09T03:40:26.254Z,16.80
2018-08-09T03:42:54.054Z,16.80
2018-08-09T03:45:21.604Z,16.70
2018-08-09T03:47:49.253Z,16.70
2018-08-09T03:50:16.764Z,16.60
2018-08-09T03:52:44.763Z,16.50
2018-08-09T03:55:12.416Z,16.50
2018-08-09T03:57:40.025Z,16.50
2018-08-09T04:00:09.454Z,16.50
2018-08-09T04:02:37.250Z,16.40
2018-08-09T04:05:05.267Z,16.50
2018-08-09T04:07:33.139Z,16.50
2018-08-09T04:10:00.790Z,16.50
2018-08-09T04:12:28.377Z,16.50
2018-08-09T04:14:55.820Z,16.40
2018-08-09T04:17:23.599Z,16.50
2018-08-09T04:19:52.017Z,16.50
2018-08-09T04:22:21.182Z,16.40
2018-08-09T04:24:49.556Z,16.40
2018-08-09T04:27:17.449Z,16.40
2018-08-09T04:29:45.312Z,16.40
2018-08-09T04:32:13.099Z,16.50
2018-08-09T04:34:41.116Z,16.50
2018-08-09T04:37:09.234Z,16.50
2018-08-09T04:39:37.774Z,16.40
2018-08-09T04:42:05.860Z,16.50
2018-08-09T04:44:33.801Z,16.70
2018-08-09T04:47:01.946Z,16.80
2018-08-09T04:49:29.903Z,17.00
2018-08-09T04:51:58.866Z,17.00
2018-08-09T04:54:26.883Z,17.00
2018-08-09T04:56:55.730Z,17.10
2018-08-09T04:59:23.674Z,17.20
2018-08-09T05:01:51.656Z,17.30
2018-08-09T05:04:19.700Z,17.50
2018-08-09T05:06:48.147Z,17.60
2018-08-09T05:09:16.160Z,17.70
2018-08-09T05:11:44.542Z,18.10
2018-08-09T05:14:12.455Z,18.70
2018-08-09T05:16:40.381Z,19.30
2018-08-09T05:19:08.164Z,19.90
2018-08-09T05:21:36.125Z,20.40
2018-08-09T05:26:56.606Z,21.30
2018-08-09T05:29:24.565Z,21.80
2018-08-09T05:32:05.832Z,22.20
2018-08-09T05:34:33.740Z,22.70
2018-08-09T05:37:01.890Z,22.90
2018-08-09T05:39:30.444Z,23.30
2018-08-09T05:42:01.613Z,23.50
2018-08-09T05:44:30.443Z,23.40
2018-08-09T05:46:58.177Z,23.80
2018-08-09T05:49:30.554Z,24.20
2018-08-09T05:51:58.889Z,24.40
2018-08-09T05:54:27.165Z,24.60
2018-08-09T05:56:55.049Z,24.90
2018-08-09T05:59:23.161Z,24.90
2018-08-09T06:01:51.396Z,25.10
2018-08-09T06:04:19.547Z,25.10
2018-08-09T06:06:47.468Z,24.60
2018-08-09T06:09:15.597Z,24.70
2018-08-09T06:11:44.360Z,24.60
2018-08-09T06:14:13.796Z,24.40
2018-08-09T06:16:42.127Z,24.20
2018-08-09T06:19:10.188Z,24.00
2018-08-09T06:24:40.639Z,24.50
2018-08-09T06:27:09.224Z,24.40
2018-08-09T06:29:37.420Z,24.50
2018-08-09T06:32:05.271Z,24.80
2018-08-09T06:34:33.507Z,24.90
2018-08-09T06:37:01.506Z,25.30
2018-08-09T06:39:32.966Z,25.50
2018-08-09T06:42:08.489Z,25.30
2018-08-09T07:19:34.075Z,25.00
2018-08-09T07:22:02.851Z,26.60
2018-08-09T07:24:30.007Z,26.60
2018-08-09T07:26:59.565Z,26.90
2018-08-09T07:29:27.287Z,26.90
2018-08-09T07:31:54.924Z,26.90
2018-08-09T07:34:22.694Z,26.60
2018-08-09T07:36:50.437Z,26.60
2018-08-09T07:39:18.213Z,26.70
2018-08-09T07:41:45.767Z,26.30
2018-08-09T07:44:13.416Z,26.20
2018-08-09T07:46:41.454Z,26.30
2018-08-09T07:49:09.396Z,26.30
2018-08-09T07:51:36.929Z,26.50
2018-08-09T07:54:05.302Z,26.60
2018-08-09T07:56:33.728Z,26.60
2018-08-09T07:59:02.397Z,26.50
2018-08-09T08:01:31.192Z,26.50
2018-08-09T08:03:59.680Z,26.50
2018-08-09T08:06:27.163Z,26.70
2018-08-09T08:08:54.721Z,26.60
2018-08-09T08:11:22.416Z,26.90
2018-08-09T08:13:50.113Z,27.00
2018-08-09T08:16:18.448Z,27.00
2018-08-09T08:18:45.949Z,27.10
2018-08-09T08:21:14.028Z,27.20
2018-08-09T08:23:42.068Z,27.10
2018-08-09T08:26:09.913Z,27.00
2018-08-09T08:28:37.419Z,26.90
2018-08-09T08:31:08.010Z,26.90
2018-08-09T08:33:35.608Z,27.30
2018-08-09T08:36:03.756Z,27.50
2018-08-09T08:38:31.386Z,27.20
2018-08-09T08:41:01.232Z,27.10
2018-08-09T08:43:30.019Z,27.30
2018-08-09T08:45:57.701Z,27.80
2018-08-09T08:48:25.283Z,28.00
2018-08-09T08:50:53.244Z,27.80
2018-08-09T08:53:22.838Z,27.80
2018-08-09T08:55:50.448Z,27.90
2018-08-09T08:58:18.660Z,27.60
2018-08-09T09:00:49.431Z,27.70
2018-08-09T09:03:17.004Z,28.20
2018-08-09T09:05:46.482Z,28.40
2018-08-09T09:08:16.420Z,28.60
2018-08-09T09:10:49.224Z,28.30
2018-08-09T09:13:18.348Z,28.30
2018-08-09T09:15:46.213Z,28.60
2018-08-09T09:18:14.490Z,29.10
2018-08-09T09:20:43.052Z,28.90
2018-08-09T09:23:11.437Z,28.10
2018-08-09T09:25:40.948Z,28.70
2018-08-09T09:28:09.122Z,29.30
2018-08-09T09:30:39.354Z,29.80
2018-08-09T09:33:07.006Z,29.30
2018-08-09T09:35:35.948Z,29.00
2018-08-09T09:38:03.583Z,28.90
2018-08-09T09:40:31.846Z,29.20
2018-08-09T09:43:01.134Z,29.20
2018-08-09T09:45:30.434Z,29.60
2018-08-09T09:47:58.582Z,29.50
2018-08-09T09:50:26.928Z,29.20
2018-08-09T09:52:55.768Z,29.70
2018-08-09T09:55:23.982Z,29.80
2018-08-09T09:57:53.274Z,29.90
2018-08-09T10:00:28.044Z,29.70
2018-08-09T10:02:57.051Z,30.20
2018-08-09T10:05:25.890Z,30.80
2018-08-09T10:07:56.760Z,30.40
2018-08-09T10:10:25.744Z,29.70
2018-08-09T10:12:53.855Z,28.90
2018-08-09T10:15:24.076Z,28.40
2018-08-09T10:17:53.246Z,28.30
2018-08-09T10:20:22.336Z,28.30
2018-08-09T10:22:50.358Z,28.20
2018-08-09T10:25:18.316Z,28.10
2018-08-09T10:27:47.443Z,27.70
2018-08-09T10:30:15.039Z,27.70
2018-08-09T10:32:48.546Z,27.80
2018-08-09T10:35:17.335Z,27.90
2018-08-09T10:37:48.482Z,27.70
2018-08-09T10:40:18.379Z,27.60
2018-08-09T10:42:47.626Z,27.60
2018-08-09T10:45:15.396Z,27.70
2018-08-09T10:47:43.191Z,27.50
2018-08-09T10:50:11.806Z,27.30
2018-08-09T10:52:42.343Z,27.30
2018-08-09T10:55:13.881Z,27.20
2018-08-09T10:57:42.786Z,27.20
2018-08-09T11:00:11.751Z,27.20
2018-08-09T11:02:39.861Z,27.20
2018-08-09T11:05:08.176Z,27.30
2018-08-09T11:07:37.623Z,27.30
2018-08-09T11:10:07.163Z,27.30
2018-08-09T11:12:38.408Z,27.20
2018-08-09T11:15:11.470Z,26.90
2018-08-09T11:17:40.968Z,26.90
2018-08-09T11:20:08.575Z,26.90
2018-08-09T11:22:36.995Z,26.80
2018-08-09T11:25:06.012Z,26.80
2018-08-09T11:27:38.341Z,26.70
2018-08-09T11:30:06.980Z,26.50
2018-08-09T11:32:35.580Z,26.60
2018-08-09T11:35:06.451Z,26.40
2018-08-09T11:37:40.043Z,26.30
2018-08-09T11:40:09.078Z,26.00
2018-08-09T11:42:37.028Z,25.90
2018-08-09T11:45:07.407Z,25.90
2018-08-09T11:47:37.668Z,26.10
2018-08-09T11:50:06.677Z,26.20
2018-08-09T11:52:36.338Z,26.40
2018-08-09T11:55:03.863Z,26.60
2018-08-09T11:57:34.066Z,26.60
2018-08-09T12:00:03.639Z,26.70
2018-08-09T12:02:33.119Z,27.00
2018-08-09T12:05:00.621Z,27.30
2018-08-09T12:07:30.870Z,27.50
2018-08-09T12:09:58.442Z,27.80
2018-08-09T12:12:28.172Z,28.10
2018-08-09T12:14:58.533Z,28.40
2018-08-09T12:17:27.936Z,28.40
2018-08-09T12:19:55.606Z,28.70
2018-08-09T12:22:25.463Z,29.20
2018-08-09T12:24:53.886Z,29.50
2018-08-09T12:27:22.627Z,29.60
2018-08-09T12:29:50.320Z,29.50
2018-08-09T12:32:17.937Z,29.80
2018-08-09T12:34:47.968Z,30.10
2018-08-09T12:37:16.086Z,30.10
2018-08-09T12:39:45.190Z,29.80
2018-08-09T12:42:14.179Z,29.70
2018-08-09T12:44:42.867Z,29.80
2018-08-09T12:47:11.726Z,29.50
2018-08-09T12:49:40.879Z,30.00
2018-08-09T12:52:08.619Z,30.20
2018-08-09T12:54:37.780Z,30.20
2018-08-09T12:57:06.952Z,30.50
2018-08-09T12:59:35.289Z,30.70
2018-08-09T13:02:03.107Z,30.50
2018-08-09T13:04:30.626Z,30.60
2018-08-09T13:06:59.363Z,30.80
2018-08-09T13:09:27.441Z,31.20
2018-08-09T13:11:56.304Z,31.50
2018-08-09T13:14:23.947Z,31.00
2018-08-09T13:16:55.907Z,30.80
2018-08-09T13:19:24.428Z,30.50
2018-08-09T13:21:51.946Z,30.10
2018-08-09T13:24:20.503Z,30.20
2018-08-09T13:26:47.985Z,30.40
2018-08-09T13:29:16.130Z,30.60
2018-08-09T13:31:45.113Z,31.00
2018-08-09T13:34:13.656Z,30.90
2018-08-09T13:36:43.082Z,31.20
2018-08-09T13:39:15.170Z,31.60
2018-08-09T13:41:45.898Z,31.40
2018-08-09T13:44:15.020Z,30.80
2018-08-09T13:46:42.773Z,30.60
2018-08-09T13:49:10.278Z,30.70
2018-08-09T13:51:37.992Z,31.00
2018-08-09T13:54:05.678Z,31.10
2018-08-09T13:56:33.752Z,31.10
2018-08-09T13:59:01.872Z,31.50
2018-08-09T14:01:30.337Z,31.80
2018-08-09T14:03:58.423Z,31.90
2018-08-09T14:06:26.072Z,31.60
2018-08-09T14:08:53.797Z,31.60
2018-08-09T14:11:22.430Z,31.30
2018-08-09T14:13:51.881Z,31.10
2018-08-09T14:16:20.782Z,31.20
2018-08-09T14:18:48.416Z,31.50
2018-08-09T14:21:16.492Z,31.80
2018-08-09T14:23:44.790Z,31.80
2018-08-09T14:26:12.522Z,32.10
2018-08-09T14:28:44.215Z,32.10
2018-08-09T14:31:19.273Z,31.80
2018-08-09T14:33:54.660Z,31.60
2018-08-09T14:36:26.059Z,31.40
2018-08-09T14:38:55.779Z,31.30
2018-08-09T14:41:25.577Z,31.30
2018-08-09T14:43:59.024Z,31.20
2018-08-09T14:46:26.808Z,31.00
2018-08-09T14:49:18.926Z,30.70
2018-08-09T14:51:47.021Z,30.80
2018-08-09T15:17:27.292Z,30.60
2018-08-09T15:19:55.629Z,31.80
2018-08-09T15:22:23.344Z,31.60
2018-08-09T15:24:52.283Z,31.40
2018-08-09T15:27:19.925Z,31.30
2018-08-09T15:29:50.046Z,31.20
2018-08-09T15:32:18.996Z,31.00
2018-08-09T15:34:48.587Z,30.70
2018-08-09T15:37:18.834Z,30.50
2018-08-09T15:39:47.400Z,30.60
2018-08-09T15:42:15.411Z,30.60
2018-08-09T15:44:46.470Z,30.60
2018-08-09T15:47:16.869Z,30.70
2018-08-09T15:49:53.890Z,30.70
2018-08-09T15:52:38.009Z,30.70
2018-08-09T15:58:03.800Z,30.40
2018-08-09T16:00:38.211Z,30.30
2018-08-09T16:03:08.391Z,30.30
2018-08-09T16:05:37.188Z,30.20
2018-08-09T16:08:09.963Z,30.20
2018-08-09T16:10:43.074Z,30.10
2018-08-09T16:13:15.681Z,30.10
2018-08-09T16:15:49.652Z,30.10
2018-08-09T16:18:19.081Z,30.00
2018-08-09T16:20:48.259Z,29.90
2018-08-09T16:23:25.163Z,29.90
2018-08-09T16:26:01.658Z,29.80
2018-08-09T16:28:32.256Z,29.80
2018-08-09T16:31:32.308Z,29.70
2018-08-09T16:37:10.934Z,29.70
2018-08-09T16:39:42.456Z,29.60
2018-08-09T16:42:15.348Z,29.50
2018-08-09T16:44:47.359Z,29.50
2018-08-09T16:47:15.421Z,29.50
2018-08-09T16:49:44.600Z,29.40
2018-08-09T16:52:12.831Z,29.40
2018-08-09T16:54:43.594Z,29.40
2018-08-09T16:57:20.555Z,29.40
2018-08-09T16:59:54.442Z,29.40
2018-08-09T17:02:25.537Z,29.30
2018-08-09T17:04:54.408Z,29.30
2018-08-09T17:07:23.989Z,29.30
2018-08-09T17:09:57.472Z,29.30
2018-08-09T17:12:28.532Z,28.80
2018-08-09T17:15:04.393Z,27.80
2018-08-09T17:23:23.833Z,25.50
2018-08-09T17:34:43.871Z,24.80
2018-08-09T17:37:16.198Z,24.40
2018-08-09T17:42:25.183Z,24.00
2018-08-09T17:44:55.947Z,23.80
2018-08-09T17:47:28.271Z,23.60
2018-08-09T17:50:31.787Z,23.60
2018-08-09T17:56:01.283Z,23.60
2018-08-09T17:58:55.385Z,23.50
2018-08-09T18:01:30.586Z,23.50
2018-08-09T18:06:58.736Z,23.50
2018-08-09T18:09:31.488Z,23.70
2018-08-09T18:12:06.863Z,23.80
2018-08-09T18:17:22.350Z,23.80
2018-08-09T18:20:27.918Z,23.70
2018-08-09T18:23:15.674Z,23.60
2018-08-09T18:25:49.407Z,23.60
2018-08-09T18:28:25.476Z,23.60
2018-08-09T18:33:59.352Z,23.60
2018-08-09T18:37:02.840Z,23.60
2018-08-09T18:39:54.740Z,23.70
2018-08-09T18:45:46.993Z,23.60
2018-08-09T18:48:35.616Z,23.50
2018-08-09T18:54:53.126Z,23.40
2018-08-09T18:57:52.731Z,23.30
2018-08-09T20:39:20.012Z,23.30
2018-08-09T20:41:47.729Z,22.60
2018-08-09T20:44:15.708Z,22.50
2018-08-09T20:46:43.171Z,22.50
2018-08-09T20:49:11.405Z,22.40
2018-08-09T20:51:38.911Z,22.40
2018-08-09T20:54:10.140Z,22.30
2018-08-09T20:56:38.799Z,22.30
2018-08-09T20:59:06.415Z,22.30
2018-08-09T21:01:34.360Z,22.30
2018-08-09T21:04:01.862Z,22.20
2018-08-09T21:06:29.551Z,22.20
2018-08-09T21:08:57.303Z,22.20
2018-08-09T21:11:25.627Z,22.20
2018-08-09T21:13:53.196Z,22.20
2018-08-09T21:16:23.979Z,22.20
2018-08-09T21:18:51.714Z,22.20
2018-08-09T21:21:19.384Z,22.20
2018-08-09T21:23:47.806Z,22.20
2018-08-09T21:26:15.843Z,22.20
2018-08-09T21:28:43.522Z,22.10
2018-08-09T21:31:11.016Z,22.10
2018-08-09T21:33:38.540Z,22.10
2018-08-09T21:36:06.840Z,22.10
2018-08-09T21:38:36.752Z,22.10
2018-08-09T21:41:05.878Z,22.10
2018-08-09T21:43:33.837Z,22.00
2018-08-09T21:46:01.270Z,22.00
2018-08-09T21:48:29.568Z,22.10
2018-08-09T21:50:58.112Z,22.10
2018-08-09T21:53:25.995Z,22.10
2018-08-09T21:55:55.596Z,22.10
2018-08-09T21:58:23.376Z,22.10
2018-08-09T22:01:01.167Z,22.10
2018-08-09T22:03:32.875Z,22.20
2018-08-09T22:06:07.052Z,22.10
2018-08-09T22:08:40.240Z,22.10
2018-08-09T22:11:14.716Z,22.10
2018-08-09T22:13:47.812Z,22.10
2018-08-09T22:16:20.963Z,22.10
2018-08-09T22:18:55.277Z,22.10
2018-08-09T22:21:29.037Z,22.00
2018-08-09T22:23:56.512Z,22.00
2018-08-09T22:26:23.967Z,21.90
2018-08-09T22:28:51.674Z,21.90
2018-08-09T22:31:19.190Z,21.80
2018-08-09T22:33:48.127Z,21.80
2018-08-09T22:36:15.709Z,21.70
2018-08-09T22:38:43.626Z,21.70
2018-08-09T22:41:11.188Z,21.60
2018-08-09T22:43:38.659Z,21.50
2018-08-09T22:46:06.176Z,21.40
2018-08-09T22:48:33.821Z,21.40
2018-08-09T22:51:01.313Z,21.30
2018-08-09T22:53:28.827Z,21.30
2018-08-09T22:55:56.649Z,21.20
2018-08-09T22:58:24.184Z,21.10
2018-08-09T23:00:51.687Z,21.10
2018-08-09T23:03:19.168Z,21.00
2018-08-09T23:05:46.606Z,20.90
2018-08-09T23:08:14.956Z,20.80
2018-08-09T23:10:43.180Z,20.80
2018-08-09T23:13:11.646Z,20.80
2018-08-09T23:15:39.639Z,20.70
2018-08-09T23:18:07.583Z,20.70
2018-08-09T23:20:36.462Z,20.60
2018-08-09T23:23:04.053Z,20.50
2018-08-09T23:25:31.547Z,20.50
2018-08-09T23:28:00.244Z,20.50
2018-08-09T23:30:27.860Z,20.40
2018-08-09T23:32:55.644Z,20.40
2018-08-09T23:35:23.201Z,20.30
2018-08-09T23:37:50.718Z,20.30
2018-08-09T23:40:18.150Z,20.30
2018-08-09T23:42:45.668Z,20.20
2018-08-09T23:45:13.101Z,20.20
2018-08-09T23:47:40.838Z,20.20
2018-08-09T23:50:10.470Z,20.20
2018-08-09T23:52:38.760Z,20.10
2018-08-09T23:55:08.868Z,20.10
2018-08-09T23:57:36.525Z,20.10
